sensor_id;sensor_type;location;lat;lon;timestamp;pressure;altitude;pressure_sealevel;temperature;humidity
33795;BME280;51430;52.242;21.118;2023-07-29T00:00:12;99552.82;;;18.77;100.00
33795;BME280;51430;52.242;21.118;2023-07-29T00:03:01;99557.33;;;18.74;100.00
33795;BME280;51430;52.242;21.118;2023-07-29T00:05:29;99556.11;;;18.76;100.00
33795;BME280;51430;52.242;21.118;2023-07-29T00:07:58;99558.89;;;18.76;100.00
33795;BME280;51430;52.242;21.118;2023-07-29T00:10:26;99561.85;;;18.78;100.00
33795;BME280;51430;52.242;21.118;2023-07-29T00:12:54;99564.02;;;18.79;100.00
33795;BME280;51430;52.242;21.118;2023-07-29T00:15:22;99568.63;;;18.80;100.00
33795;BME280;51430;52.242;21.118;2023-07-29T00:17:50;99565.03;;;18.79;100.00
33795;BME280;51430;52.242;21.118;2023-07-29T00:20:17;99570.29;;;18.75;100.00
33795;BME280;51430;52.242;21.118;2023-07-29T00:22:45;99568.56;;;18.74;100.00
33795;BME280;51430;52.242;21.118;2023-07-29T00:25:13;99573.17;;;18.74;100.00
33795;BME280;51430;52.242;21.118;2023-07-29T00:27:41;99575.20;;;18.74;100.00
33795;BME280;51430;52.242;21.118;2023-07-29T00:30:09;99578.34;;;18.73;100.00
33795;BME280;51430;52.242;21.118;2023-07-29T00:32:37;99581.20;;;18.70;100.00
33795;BME280;51430;52.242;21.118;2023-07-29T00:35:06;99583.28;;;18.67;100.00
33795;BME280;51430;52.242;21.118;2023-07-29T00:37:33;99587.02;;;18.66;100.00
33795;BME280;51430;52.242;21.118;2023-07-29T00:40:01;99588.31;;;18.63;100.00
33795;BME280;51430;52.242;21.118;2023-07-29T00:42:32;99591.64;;;18.57;100.00
33795;BME280;51430;52.242;21.118;2023-07-29T00:45:00;99594.48;;;18.53;100.00
33795;BME280;51430;52.242;21.118;2023-07-29T00:47:30;99593.77;;;18.48;100.00
33795;BME280;51430;52.242;21.118;2023-07-29T00:49:58;99591.52;;;18.45;100.00
33795;BME280;51430;52.242;21.118;2023-07-29T00:52:26;99594.61;;;18.41;100.00
33795;BME280;51430;52.242;21.118;2023-07-29T00:54:54;99594.02;;;18.39;100.00
33795;BME280;51430;52.242;21.118;2023-07-29T00:57:23;99598.38;;;18.36;100.00
33795;BME280;51430;52.242;21.118;2023-07-29T00:59:53;99595.07;;;18.33;100.00
33795;BME280;51430;52.242;21.118;2023-07-29T01:02:21;99597.48;;;18.31;100.00
33795;BME280;51430;52.242;21.118;2023-07-29T01:04:57;99598.95;;;18.26;100.00
33795;BME280;51430;52.242;21.118;2023-07-29T01:10:46;99603.73;;;18.10;100.00
33795;BME280;51430;52.242;21.118;2023-07-29T01:13:41;99599.51;;;17.99;100.00
33795;BME280;51430;52.242;21.118;2023-07-29T01:16:21;99595.84;;;17.87;100.00
33795;BME280;51430;52.242;21.118;2023-07-29T01:18:52;99597.75;;;17.82;100.00
33795;BME280;51430;52.242;21.118;2023-07-29T01:21:21;99599.92;;;17.78;100.00
33795;BME280;51430;52.242;21.118;2023-07-29T01:23:52;99602.05;;;17.74;100.00
33795;BME280;51430;52.242;21.118;2023-07-29T01:26:20;99603.48;;;17.68;100.00
33795;BME280;51430;52.242;21.118;2023-07-29T01:28:48;99604.17;;;17.60;100.00
33795;BME280;51430;52.242;21.118;2023-07-29T01:31:22;99604.80;;;17.55;100.00
33795;BME280;51430;52.242;21.118;2023-07-29T01:34:11;99607.59;;;17.48;100.00
33795;BME280;51430;52.242;21.118;2023-07-29T01:36:41;99615.34;;;17.37;100.00
33795;BME280;51430;52.242;21.118;2023-07-29T01:39:16;99614.81;;;17.32;100.00
33795;BME280;51430;52.242;21.118;2023-07-29T01:41:44;99620.45;;;17.25;100.00
33795;BME280;51430;52.242;21.118;2023-07-29T01:44:13;99623.11;;;17.19;100.00
33795;BME280;51430;52.242;21.118;2023-07-29T01:46:44;99620.19;;;17.15;100.00
33795;BME280;51430;52.242;21.118;2023-07-29T01:49:11;99619.86;;;17.13;100.00
33795;BME280;51430;52.242;21.118;2023-07-29T01:51:39;99623.96;;;17.08;100.00
33795;BME280;51430;52.242;21.118;2023-07-29T01:54:07;99618.73;;;17.06;100.00
33795;BME280;51430;52.242;21.118;2023-07-29T01:56:35;99622.35;;;17.04;100.00
33795;BME280;51430;52.242;21.118;2023-07-29T01:59:03;99623.92;;;17.03;100.00
33795;BME280;51430;52.242;21.118;2023-07-29T02:01:49;99624.80;;;17.00;100.00
33795;BME280;51430;52.242;21.118;2023-07-29T02:04:22;99626.48;;;16.94;100.00
33795;BME280;51430;52.242;21.118;2023-07-29T02:06:49;99629.29;;;16.94;100.00
33795;BME280;51430;52.242;21.118;2023-07-29T02:09:17;99630.02;;;16.96;100.00
33795;BME280;51430;52.242;21.118;2023-07-29T02:11:45;99632.76;;;17.02;100.00
33795;BME280;51430;52.242;21.118;2023-07-29T02:14:13;99632.88;;;17.06;100.00
33795;BME280;51430;52.242;21.118;2023-07-29T02:16:40;99635.27;;;17.06;100.00
33795;BME280;51430;52.242;21.118;2023-07-29T02:19:09;99634.73;;;17.04;100.00
33795;BME280;51430;52.242;21.118;2023-07-29T02:21:37;99639.02;;;17.03;100.00
33795;BME280;51430;52.242;21.118;2023-07-29T02:24:04;99641.88;;;16.98;100.00
33795;BME280;51430;52.242;21.118;2023-07-29T02:26:32;99643.70;;;16.93;100.00
33795;BME280;51430;52.242;21.118;2023-07-29T02:29:01;99648.77;;;16.89;100.00
33795;BME280;51430;52.242;21.118;2023-07-29T02:31:29;99647.73;;;16.84;100.00
33795;BME280;51430;52.242;21.118;2023-07-29T02:33:57;99648.84;;;16.79;100.00
33795;BME280;51430;52.242;21.118;2023-07-29T02:36:24;99650.02;;;16.75;100.00
33795;BME280;51430;52.242;21.118;2023-07-29T02:38:52;99650.67;;;16.69;100.00
33795;BME280;51430;52.242;21.118;2023-07-29T02:41:24;99647.41;;;16.61;100.00
33795;BME280;51430;52.242;21.118;2023-07-29T02:43:51;99645.09;;;16.59;100.00
33795;BME280;51430;52.242;21.118;2023-07-29T02:46:19;99647.40;;;16.58;100.00
33795;BME280;51430;52.242;21.118;2023-07-29T02:48:47;99642.73;;;16.52;100.00
33795;BME280;51430;52.242;21.118;2023-07-29T02:51:15;99642.77;;;16.49;100.00
33795;BME280;51430;52.242;21.118;2023-07-29T02:53:43;99645.55;;;16.48;100.00
33795;BME280;51430;52.242;21.118;2023-07-29T02:56:11;99653.86;;;16.44;100.00
33795;BME280;51430;52.242;21.118;2023-07-29T02:58:39;99654.87;;;16.41;100.00
33795;BME280;51430;52.242;21.118;2023-07-29T03:01:07;99655.56;;;16.39;100.00
33795;BME280;51430;52.242;21.118;2023-07-29T03:03:35;99658.65;;;16.37;100.00
33795;BME280;51430;52.242;21.118;2023-07-29T03:06:05;99660.42;;;16.34;100.00
33795;BME280;51430;52.242;21.118;2023-07-29T03:08:34;99664.69;;;16.32;100.00
33795;BME280;51430;52.242;21.118;2023-07-29T03:11:07;99665.65;;;16.30;100.00
33795;BME280;51430;52.242;21.118;2023-07-29T03:13:37;99665.52;;;16.26;100.00
33795;BME280;51430;52.242;21.118;2023-07-29T03:18:34;99666.65;;;16.27;100.00
33795;BME280;51430;52.242;21.118;2023-07-29T03:21:03;99665.48;;;16.26;100.00
33795;BME280;51430;52.242;21.118;2023-07-29T03:23:32;99667.34;;;16.26;100.00
33795;BME280;51430;52.242;21.118;2023-07-29T03:26:03;99673.05;;;16.25;100.00
33795;BME280;51430;52.242;21.118;2023-07-29T03:28:42;99671.40;;;16.22;100.00
33795;BME280;51430;52.242;21.118;2023-07-29T03:31:11;99672.45;;;16.24;100.00
33795;BME280;51430;52.242;21.118;2023-07-29T03:33:39;99672.42;;;16.26;100.00
33795;BME280;51430;52.242;21.118;2023-07-29T03:36:06;99671.98;;;16.27;100.00
33795;BME280;51430;52.242;21.118;2023-07-29T03:38:34;99673.41;;;16.28;100.00
33795;BME280;51430;52.242;21.118;2023-07-29T03:41:03;99676.01;;;16.30;100.00
33795;BME280;51430;52.242;21.118;2023-07-29T03:43:31;99679.04;;;16.31;100.00
33795;BME280;51430;52.242;21.118;2023-07-29T03:46:00;99688.64;;;16.33;100.00
33795;BME280;51430;52.242;21.118;2023-07-29T03:48:28;99690.88;;;16.35;100.00
33795;BME280;51430;52.242;21.118;2023-07-29T03:50:55;99689.95;;;16.38;100.00
33795;BME280;51430;52.242;21.118;2023-07-29T03:53:23;99690.02;;;16.41;100.00
33795;BME280;51430;52.242;21.118;2023-07-29T03:55:51;99695.55;;;16.44;100.00
33795;BME280;51430;52.242;21.118;2023-07-29T03:58:19;99693.56;;;16.46;100.00
33795;BME280;51430;52.242;21.118;2023-07-29T04:00:47;99695.75;;;16.50;100.00
33795;BME280;51430;52.242;21.118;2023-07-29T04:03:15;99696.92;;;16.55;100.00
33795;BME280;51430;52.242;21.118;2023-07-29T04:05:43;99696.23;;;16.60;100.00
33795;BME280;51430;52.242;21.118;2023-07-29T04:08:11;99694.79;;;16.63;100.00
33795;BME280;51430;52.242;21.118;2023-07-29T04:10:39;99695.98;;;16.69;100.00
33795;BME280;51430;52.242;21.118;2023-07-29T04:13:06;99697.89;;;16.73;100.00
33795;BME280;51430;52.242;21.118;2023-07-29T04:15:34;99701.48;;;16.77;100.00
33795;BME280;51430;52.242;21.118;2023-07-29T04:18:02;99705.19;;;16.84;100.00
33795;BME280;51430;52.242;21.118;2023-07-29T04:20:30;99706.96;;;16.91;100.00
33795;BME280;51430;52.242;21.118;2023-07-29T04:22:58;99706.28;;;16.97;100.00
33795;BME280;51430;52.242;21.118;2023-07-29T04:25:25;99710.64;;;17.03;100.00
33795;BME280;51430;52.242;21.118;2023-07-29T04:27:53;99715.48;;;17.09;100.00
33795;BME280;51430;52.242;21.118;2023-07-29T04:30:22;99717.77;;;17.15;100.00
33795;BME280;51430;52.242;21.118;2023-07-29T04:32:49;99721.11;;;17.20;100.00
33795;BME280;51430;52.242;21.118;2023-07-29T04:35:17;99725.10;;;17.26;100.00
33795;BME280;51430;52.242;21.118;2023-07-29T04:37:45;99725.23;;;17.33;100.00
33795;BME280;51430;52.242;21.118;2023-07-29T04:40:15;99730.11;;;17.38;100.00
33795;BME280;51430;52.242;21.118;2023-07-29T04:42:43;99732.88;;;17.42;100.00
33795;BME280;51430;52.242;21.118;2023-07-29T04:45:11;99735.84;;;17.48;100.00
33795;BME280;51430;52.242;21.118;2023-07-29T04:47:39;99738.59;;;17.54;100.00
33795;BME280;51430;52.242;21.118;2023-07-29T04:50:07;99740.10;;;17.60;100.00
33795;BME280;51430;52.242;21.118;2023-07-29T04:52:35;99744.06;;;17.66;100.00
33795;BME280;51430;52.242;21.118;2023-07-29T04:55:05;99743.06;;;17.73;100.00
33795;BME280;51430;52.242;21.118;2023-07-29T04:57:33;99746.02;;;17.81;100.00
33795;BME280;51430;52.242;21.118;2023-07-29T05:00:02;99749.44;;;17.86;100.00
33795;BME280;51430;52.242;21.118;2023-07-29T05:03:33;99752.64;;;17.92;100.00
33795;BME280;51430;52.242;21.118;2023-07-29T05:07:11;99759.96;;;17.85;100.00
33795;BME280;51430;52.242;21.118;2023-07-29T05:09:39;99764.25;;;17.88;100.00
33795;BME280;51430;52.242;21.118;2023-07-29T05:12:07;99769.59;;;18.02;100.00
33795;BME280;51430;52.242;21.118;2023-07-29T05:17:56;99776.54;;;18.15;100.00
33795;BME280;51430;52.242;21.118;2023-07-29T05:21:20;99777.30;;;18.26;100.00
33795;BME280;51430;52.242;21.118;2023-07-29T05:24:58;99779.12;;;18.21;100.00
33795;BME280;51430;52.242;21.118;2023-07-29T05:27:24;99780.00;;;18.20;100.00
33795;BME280;51430;52.242;21.118;2023-07-29T05:29:51;99779.61;;;18.28;100.00
33795;BME280;51430;52.242;21.118;2023-07-29T05:32:17;99777.65;;;18.34;100.00
33795;BME280;51430;52.242;21.118;2023-07-29T05:38:01;99777.64;;;18.36;100.00
33795;BME280;51430;52.242;21.118;2023-07-29T05:40:29;99778.41;;;18.35;100.00
33795;BME280;51430;52.242;21.118;2023-07-29T05:42:56;99781.39;;;18.32;100.00
33795;BME280;51430;52.242;21.118;2023-07-29T05:45:22;99778.93;;;18.31;100.00
33795;BME280;51430;52.242;21.118;2023-07-29T05:47:49;99775.92;;;18.32;100.00
33795;BME280;51430;52.242;21.118;2023-07-29T05:51:50;99772.16;;;18.46;100.00
33795;BME280;51430;52.242;21.118;2023-07-29T05:55:27;99773.34;;;18.58;100.00
33795;BME280;51430;52.242;21.118;2023-07-29T05:59:04;99781.69;;;18.77;100.00
33795;BME280;51430;52.242;21.118;2023-07-29T06:02:44;99785.27;;;18.97;100.00
33795;BME280;51430;52.242;21.118;2023-07-29T06:05:12;99784.28;;;19.25;100.00
33795;BME280;51430;52.242;21.118;2023-07-29T06:07:40;99792.08;;;19.67;99.93
33795;BME280;51430;52.242;21.118;2023-07-29T06:10:35;99791.25;;;20.12;98.56
33795;BME280;51430;52.242;21.118;2023-07-29T06:13:03;99798.48;;;20.46;96.15
33795;BME280;51430;52.242;21.118;2023-07-29T06:15:32;99799.32;;;20.76;93.40
33795;BME280;51430;52.242;21.118;2023-07-29T06:18:00;99807.15;;;21.07;90.71
33795;BME280;51430;52.242;21.118;2023-07-29T06:20:28;99813.02;;;21.39;89.02
33795;BME280;51430;52.242;21.118;2023-07-29T06:22:56;99818.69;;;21.63;87.15
33795;BME280;51430;52.242;21.118;2023-07-29T06:25:24;99823.87;;;21.88;85.32
33795;BME280;51430;52.242;21.118;2023-07-29T06:27:52;99827.79;;;22.16;84.35
33795;BME280;51430;52.242;21.118;2023-07-29T06:30:19;99832.39;;;22.43;82.60
33795;BME280;51430;52.242;21.118;2023-07-29T06:32:47;99834.00;;;22.65;81.64
33795;BME280;51430;52.242;21.118;2023-07-29T06:35:15;99839.13;;;22.85;80.75
33795;BME280;51430;52.242;21.118;2023-07-29T06:37:43;99836.06;;;23.01;80.26
33795;BME280;51430;52.242;21.118;2023-07-29T06:40:11;99841.84;;;23.11;78.46
33795;BME280;51430;52.242;21.118;2023-07-29T06:42:39;99843.42;;;23.25;79.23
33795;BME280;51430;52.242;21.118;2023-07-29T06:45:09;99847.49;;;23.44;75.50
33795;BME280;51430;52.242;21.118;2023-07-29T06:47:37;99847.95;;;23.50;76.47
33795;BME280;51430;52.242;21.118;2023-07-29T06:50:05;99851.77;;;23.66;76.11
33795;BME280;51430;52.242;21.118;2023-07-29T06:52:33;99850.74;;;23.92;74.03
33795;BME280;51430;52.242;21.118;2023-07-29T06:55:01;99851.31;;;24.19;75.27
33795;BME280;51430;52.242;21.118;2023-07-29T06:57:34;99849.81;;;24.51;72.67
33795;BME280;51430;52.242;21.118;2023-07-29T07:00:11;99851.04;;;24.77;70.93
33795;BME280;51430;52.242;21.118;2023-07-29T07:02:39;99848.40;;;24.72;70.60
33795;BME280;51430;52.242;21.118;2023-07-29T07:05:08;99845.73;;;24.53;70.34
33795;BME280;51430;52.242;21.118;2023-07-29T07:07:36;99850.16;;;24.01;71.19
33795;BME280;51430;52.242;21.118;2023-07-29T07:10:05;99843.77;;;23.44;73.26
33795;BME280;51430;52.242;21.118;2023-07-29T07:12:33;99843.55;;;22.71;76.23
33795;BME280;51430;52.242;21.118;2023-07-29T07:15:01;99842.52;;;22.41;77.64
33795;BME280;51430;52.242;21.118;2023-07-29T07:17:31;99839.33;;;22.29;77.71
33795;BME280;51430;52.242;21.118;2023-07-29T07:19:59;99839.17;;;22.00;78.24
33795;BME280;51430;52.242;21.118;2023-07-29T07:22:27;99838.24;;;21.59;79.72
33795;BME280;51430;52.242;21.118;2023-07-29T07:24:55;99834.89;;;21.51;80.81
33795;BME280;51430;52.242;21.118;2023-07-29T07:27:22;99839.55;;;21.51;81.28
33795;BME280;51430;52.242;21.118;2023-07-29T07:29:50;99836.98;;;21.52;81.56
33795;BME280;51430;52.242;21.118;2023-07-29T07:32:18;99839.17;;;22.19;80.49
33795;BME280;51430;52.242;21.118;2023-07-29T07:34:46;99834.70;;;22.83;77.82
33795;BME280;51430;52.242;21.118;2023-07-29T07:37:14;99835.83;;;23.42;76.57
33795;BME280;51430;52.242;21.118;2023-07-29T07:39:42;99837.31;;;23.41;74.97
33795;BME280;51430;52.242;21.118;2023-07-29T07:42:09;99832.16;;;23.03;75.28
33795;BME280;51430;52.242;21.118;2023-07-29T07:44:38;99831.99;;;22.76;75.93
33795;BME280;51430;52.242;21.118;2023-07-29T07:47:05;99834.25;;;23.10;75.03
33795;BME280;51430;52.242;21.118;2023-07-29T07:49:33;99843.83;;;23.70;72.63
33795;BME280;51430;52.242;21.118;2023-07-29T07:52:01;99843.75;;;23.58;71.37
33795;BME280;51430;52.242;21.118;2023-07-29T07:54:29;99846.05;;;23.68;71.44
33795;BME280;51430;52.242;21.118;2023-07-29T07:56:56;99845.24;;;24.07;70.01
33795;BME280;51430;52.242;21.118;2023-07-29T07:59:24;99850.46;;;24.52;68.36
33795;BME280;51430;52.242;21.118;2023-07-29T08:01:52;99848.72;;;25.09;67.19
33795;BME280;51430;52.242;21.118;2023-07-29T08:04:20;99846.58;;;25.60;64.92
33795;BME280;51430;52.242;21.118;2023-07-29T08:06:48;99851.25;;;26.05;63.46
33795;BME280;51430;52.242;21.118;2023-07-29T08:09:16;99846.98;;;25.67;62.95
33795;BME280;51430;52.242;21.118;2023-07-29T08:11:44;99842.95;;;24.94;65.52
33795;BME280;51430;52.242;21.118;2023-07-29T08:14:12;99843.98;;;24.74;66.06
33795;BME280;51430;52.242;21.118;2023-07-29T08:16:39;99843.38;;;24.55;66.94
33795;BME280;51430;52.242;21.118;2023-07-29T08:19:07;99841.23;;;25.04;65.85
33795;BME280;51430;52.242;21.118;2023-07-29T08:21:37;99839.38;;;25.66;63.57
33795;BME280;51430;52.242;21.118;2023-07-29T08:24:05;99840.02;;;25.93;62.94
33795;BME280;51430;52.242;21.118;2023-07-29T08:26:34;99844.16;;;25.84;60.12
33795;BME280;51430;52.242;21.118;2023-07-29T08:29:03;99843.46;;;25.20;61.33
33795;BME280;51430;52.242;21.118;2023-07-29T08:31:30;99842.20;;;25.46;60.99
33795;BME280;51430;52.242;21.118;2023-07-29T08:34:01;99841.91;;;25.57;60.32
33795;BME280;51430;52.242;21.118;2023-07-29T08:36:29;99840.09;;;25.45;58.87
33795;BME280;51430;52.242;21.118;2023-07-29T08:38:57;99835.34;;;25.36;60.13
33795;BME280;51430;52.242;21.118;2023-07-29T08:41:26;99840.90;;;25.04;60.51
33795;BME280;51430;52.242;21.118;2023-07-29T08:44:12;99838.81;;;24.54;61.97
33795;BME280;51430;52.242;21.118;2023-07-29T08:46:41;99834.15;;;24.77;62.68
33795;BME280;51430;52.242;21.118;2023-07-29T08:49:11;99834.52;;;25.63;60.08
33795;BME280;51430;52.242;21.118;2023-07-29T08:51:42;99837.33;;;26.40;58.11
33795;BME280;51430;52.242;21.118;2023-07-29T08:54:10;99839.60;;;26.78;54.88
33795;BME280;51430;52.242;21.118;2023-07-29T08:56:40;99841.23;;;26.44;54.33
33795;BME280;51430;52.242;21.118;2023-07-29T08:59:09;99839.60;;;26.97;54.56
33795;BME280;51430;52.242;21.118;2023-07-29T09:01:38;99843.56;;;27.92;53.24
33795;BME280;51430;52.242;21.118;2023-07-29T09:04:06;99844.08;;;28.26;51.12
33795;BME280;51430;52.242;21.118;2023-07-29T09:06:35;99840.06;;;28.93;49.96
33795;BME280;51430;52.242;21.118;2023-07-29T09:09:03;99835.52;;;29.42;47.71
33795;BME280;51430;52.242;21.118;2023-07-29T09:11:32;99842.42;;;29.73;47.35
33795;BME280;51430;52.242;21.118;2023-07-29T09:14:01;99842.77;;;30.11;46.17
33795;BME280;51430;52.242;21.118;2023-07-29T09:16:29;99836.14;;;29.74;45.84
33795;BME280;51430;52.242;21.118;2023-07-29T09:19:01;99847.33;;;29.90;45.76
33795;BME280;51430;52.242;21.118;2023-07-29T09:21:29;99845.04;;;30.03;45.61
33795;BME280;51430;52.242;21.118;2023-07-29T09:24:02;99848.85;;;28.98;46.35
33795;BME280;51430;52.242;21.118;2023-07-29T09:26:30;99843.93;;;28.17;48.60
33795;BME280;51430;52.242;21.118;2023-07-29T09:28:59;99844.63;;;28.50;47.58
33795;BME280;51430;52.242;21.118;2023-07-29T09:31:28;99840.89;;;28.94;47.59
33795;BME280;51430;52.242;21.118;2023-07-29T09:34:01;99843.15;;;28.73;47.96
33795;BME280;51430;52.242;21.118;2023-07-29T09:36:33;99841.40;;;29.44;47.43
33795;BME280;51430;52.242;21.118;2023-07-29T09:39:02;99843.02;;;28.76;47.05
33795;BME280;51430;52.242;21.118;2023-07-29T09:41:31;99840.34;;;28.21;48.69
33795;BME280;51430;52.242;21.118;2023-07-29T09:44:00;99835.56;;;28.94;47.60
33795;BME280;51430;52.242;21.118;2023-07-29T09:46:36;99843.27;;;28.81;46.03
33795;BME280;51430;52.242;21.118;2023-07-29T09:49:06;99837.35;;;28.22;47.49
33795;BME280;51430;52.242;21.118;2023-07-29T09:51:40;99834.11;;;29.02;45.89
33795;BME280;51430;52.242;21.118;2023-07-29T09:54:10;99826.13;;;29.78;45.06
33795;BME280;51430;52.242;21.118;2023-07-29T09:56:41;99829.77;;;30.93;43.41
33795;BME280;51430;52.242;21.118;2023-07-29T09:59:12;99831.04;;;31.87;41.67
33795;BME280;51430;52.242;21.118;2023-07-29T10:01:40;99835.02;;;32.66;41.58
33795;BME280;51430;52.242;21.118;2023-07-29T10:04:10;99833.46;;;32.90;39.27
33795;BME280;51430;52.242;21.118;2023-07-29T10:06:41;99833.90;;;32.07;40.07
33795;BME280;51430;52.242;21.118;2023-07-29T10:09:13;99833.34;;;32.62;39.64
33795;BME280;51430;52.242;21.118;2023-07-29T10:11:41;99829.36;;;32.07;39.79
33795;BME280;51430;52.242;21.118;2023-07-29T10:14:09;99825.81;;;32.27;39.51
33795;BME280;51430;52.242;21.118;2023-07-29T10:16:39;99829.38;;;32.89;38.19
33795;BME280;51430;52.242;21.118;2023-07-29T10:19:09;99833.84;;;33.37;37.71
33795;BME280;51430;52.242;21.118;2023-07-29T10:21:38;99830.92;;;33.28;37.10
33795;BME280;51430;52.242;21.118;2023-07-29T10:24:11;99827.05;;;33.53;36.82
33795;BME280;51430;52.242;21.118;2023-07-29T10:26:44;99829.84;;;33.26;35.78
33795;BME280;51430;52.242;21.118;2023-07-29T10:29:14;99824.74;;;32.29;37.09
33795;BME280;51430;52.242;21.118;2023-07-29T10:31:47;99820.38;;;32.81;37.82
33795;BME280;51430;52.242;21.118;2023-07-29T10:34:15;99814.61;;;32.96;36.58
33795;BME280;51430;52.242;21.118;2023-07-29T10:36:43;99824.55;;;32.85;36.73
33795;BME280;51430;52.242;21.118;2023-07-29T10:39:11;99821.52;;;32.94;36.63
33795;BME280;51430;52.242;21.118;2023-07-29T10:47:12;99820.73;;;34.59;33.23
33795;BME280;51430;52.242;21.118;2023-07-29T10:49:54;99823.73;;;34.51;33.75
33795;BME280;51430;52.242;21.118;2023-07-29T10:55:23;99808.75;;;33.56;34.34
33795;BME280;51430;52.242;21.118;2023-07-29T10:57:52;99807.79;;;34.07;34.53
33795;BME280;51430;52.242;21.118;2023-07-29T11:00:20;99807.11;;;33.76;33.62
33795;BME280;51430;52.242;21.118;2023-07-29T11:03:03;99804.08;;;33.90;34.71
33795;BME280;51430;52.242;21.118;2023-07-29T11:05:49;99805.42;;;34.82;33.47
33795;BME280;51430;52.242;21.118;2023-07-29T11:08:28;99805.02;;;34.98;33.66
33795;BME280;51430;52.242;21.118;2023-07-29T11:13:28;99811.61;;;36.10;31.35
33795;BME280;51430;52.242;21.118;2023-07-29T11:15:57;99812.41;;;36.59;30.65
33795;BME280;51430;52.242;21.118;2023-07-29T11:18:28;99812.27;;;35.56;31.26
33795;BME280;51430;52.242;21.118;2023-07-29T11:20:56;99802.11;;;34.27;33.32
33795;BME280;51430;52.242;21.118;2023-07-29T11:23:35;99794.83;;;34.43;33.22
33795;BME280;51430;52.242;21.118;2023-07-29T11:26:04;99791.59;;;34.73;33.00
33795;BME280;51430;52.242;21.118;2023-07-29T11:28:38;99790.70;;;35.62;32.81
33795;BME280;51430;52.242;21.118;2023-07-29T11:31:06;99790.50;;;36.42;30.96
33795;BME280;51430;52.242;21.118;2023-07-29T11:33:34;99783.45;;;35.62;30.68
33795;BME280;51430;52.242;21.118;2023-07-29T11:36:02;99783.28;;;35.50;31.39
33795;BME280;51430;52.242;21.118;2023-07-29T11:38:30;99777.35;;;35.72;31.30
33795;BME280;51430;52.242;21.118;2023-07-29T11:41:04;99776.39;;;36.11;30.61
33795;BME280;51430;52.242;21.118;2023-07-29T11:43:36;99775.30;;;36.40;30.58
33795;BME280;51430;52.242;21.118;2023-07-29T11:46:04;99768.38;;;36.94;30.43
33795;BME280;51430;52.242;21.118;2023-07-29T11:48:33;99769.65;;;36.27;30.14
33795;BME280;51430;52.242;21.118;2023-07-29T11:51:02;99764.29;;;36.09;30.50
33795;BME280;51430;52.242;21.118;2023-07-29T11:53:31;99754.32;;;36.88;30.15
33795;BME280;51430;52.242;21.118;2023-07-29T11:55:59;99762.99;;;36.73;29.93
33795;BME280;51430;52.242;21.118;2023-07-29T11:58:27;99752.78;;;37.37;29.91
33795;BME280;51430;52.242;21.118;2023-07-29T12:00:55;99750.79;;;38.57;29.24
33795;BME280;51430;52.242;21.118;2023-07-29T12:03:24;99746.98;;;39.26;28.48
33795;BME280;51430;52.242;21.118;2023-07-29T12:05:52;99745.86;;;38.68;28.18
33795;BME280;51430;52.242;21.118;2023-07-29T12:08:20;99735.35;;;36.72;29.94
33795;BME280;51430;52.242;21.118;2023-07-29T12:10:48;99728.02;;;35.97;31.18
33795;BME280;51430;52.242;21.118;2023-07-29T12:13:16;99723.05;;;35.36;32.05
33795;BME280;51430;52.242;21.118;2023-07-29T12:15:44;99728.59;;;36.06;31.73
33795;BME280;51430;52.242;21.118;2023-07-29T12:18:12;99734.87;;;36.19;31.07
33795;BME280;51430;52.242;21.118;2023-07-29T12:20:41;99729.90;;;35.99;31.73
33795;BME280;51430;52.242;21.118;2023-07-29T12:23:08;99729.14;;;36.46;30.78
33795;BME280;51430;52.242;21.118;2023-07-29T12:25:37;99726.30;;;35.66;31.90
33795;BME280;51430;52.242;21.118;2023-07-29T12:28:06;99723.94;;;35.67;31.95
33795;BME280;51430;52.242;21.118;2023-07-29T12:30:41;99721.12;;;36.58;31.12
33795;BME280;51430;52.242;21.118;2023-07-29T12:33:09;99718.20;;;36.85;31.57
33795;BME280;51430;52.242;21.118;2023-07-29T12:35:38;99715.44;;;37.26;30.21
33795;BME280;51430;52.242;21.118;2023-07-29T12:38:06;99712.30;;;36.51;30.54
33795;BME280;51430;52.242;21.118;2023-07-29T12:40:38;99711.14;;;37.22;30.41
33795;BME280;51430;52.242;21.118;2023-07-29T12:43:07;99713.98;;;37.62;29.42
33795;BME280;51430;52.242;21.118;2023-07-29T12:45:36;99712.17;;;38.21;29.80
33795;BME280;51430;52.242;21.118;2023-07-29T12:48:09;99714.23;;;39.30;29.48
33795;BME280;51430;52.242;21.118;2023-07-29T12:50:37;99719.48;;;40.13;27.59
33795;BME280;51430;52.242;21.118;2023-07-29T12:53:07;99717.05;;;39.89;27.44
33795;BME280;51430;52.242;21.118;2023-07-29T12:55:35;99712.81;;;39.67;27.85
33795;BME280;51430;52.242;21.118;2023-07-29T12:58:04;99714.06;;;40.13;27.40
33795;BME280;51430;52.242;21.118;2023-07-29T13:00:32;99715.98;;;40.30;27.10
33795;BME280;51430;52.242;21.118;2023-07-29T13:03:00;99710.02;;;40.74;26.88
33795;BME280;51430;52.242;21.118;2023-07-29T13:05:28;99706.96;;;40.42;26.37
33795;BME280;51430;52.242;21.118;2023-07-29T13:07:56;99706.17;;;40.01;26.80
33795;BME280;51430;52.242;21.118;2023-07-29T13:10:24;99701.36;;;39.43;27.35
33795;BME280;51430;52.242;21.118;2023-07-29T13:12:53;99702.16;;;39.11;28.03
33795;BME280;51430;52.242;21.118;2023-07-29T13:15:21;99698.63;;;38.95;27.80
33795;BME280;51430;52.242;21.118;2023-07-29T13:17:49;99690.41;;;38.54;28.39
33795;BME280;51430;52.242;21.118;2023-07-29T13:20:17;99690.95;;;38.82;28.50
33795;BME280;51430;52.242;21.118;2023-07-29T13:22:44;99689.39;;;39.35;28.10
33795;BME280;51430;52.242;21.118;2023-07-29T13:25:12;99690.46;;;39.59;27.31
33795;BME280;51430;52.242;21.118;2023-07-29T13:27:40;99691.31;;;40.05;26.89